Star Kilimanjaro — LAIG7 — position and weather

sailwx.info

Track history (hours):
 
Tides and Currents Weather Stations Pressure Air Temp Water Temp Dewpoint Dewpoint Depression Visibility Wind Speed Wind Dir Waves Ship Positions

Star Kilimanjaro

Last reported at 2018-Feb-14 23:51 UTC. Time now 2018-Feb-21 19:17 UTC.
Position N 22°18' E 119°49'.

Length 208 m; draft 7.2 m.

Type: Cargo ship. MMSI: 257350000.

Date/timePositionNaut miles runAvg speedWind from/ knotsBaromVisibWave heightAir tempDewpointWater temp
2018-Feb-14 23:51N 22°18' E 119°49'412.7
2018-Feb-14 23:30N 22°22' E 119°49'713.3
2018-Feb-14 23:00N 22°29' E 119°49'714.1
2018-Feb-14 22:30N 22°36' E 119°49'714.0
2018-Feb-14 22:00N 22°43' E 119°48'714.4
2018-Feb-14 21:30N 22°50' E 119°48'714.0
2018-Feb-14 21:00N 22°57' E 119°48'713.3
2018-Feb-14 20:29N 23°04' E 119°50'714.0
2018-Feb-14 20:00N 23°11' E 119°51'814.5
2018-Feb-14 19:29N 23°18' E 119°51'714.4
2018-Feb-14 19:00N 23°25' E 119°52'814.7
2018-Feb-14 18:30N 23°32' E 119°53'815.0
2018-Feb-14 17:58N 23°40' E 119°53'9414.0
2018-Feb-14 11:14N 25°06' E 120°35'314.5
2018-Feb-14 11:00N 25°09' E 120°37'714.4
2018-Feb-14 10:30N 25°15' E 120°41'714.2
2018-Feb-14 10:00N 25°21' E 120°46'714.4
2018-Feb-14 09:30N 25°28' E 120°50'714.2
2018-Feb-14 09:00N 25°33' E 120°54'713.7
2018-Feb-14 08:30N 25°39' E 120°58'713.7
2018-Feb-14 07:59N 25°45' E 121°03'713.7
2018-Feb-14 07:29N 25°51' E 121°07'713.8
2018-Feb-14 07:00N 25°57' E 121°11'31111.8
2018-Feb-13 04:34N 31°00' E 122°25'116.6
2018-Feb-13 04:29N 31°01' E 122°23'814.5
2018-Feb-13 03:55N 31°03' E 122°14'611.3
2018-Feb-13 03:23N 31°04' E 122°07'411.8
2018-Feb-13 03:00N 31°05' E 122°02'610.4
2018-Feb-13 02:24N 31°08' E 121°55'411.0
2018-Feb-13 02:01N 31°10' E 121°51'510.9
2018-Feb-13 01:30N 31°14' E 121°47'810.8
2018-Feb-13 00:47N 31°20' E 121°41'810.9
2018-Feb-13 00:02N 31°24' E 121°33'110.7
2018-Feb-12 23:59N 31°25' E 121°32'5 8.7
2018-Feb-12 23:26N 31°28' E 121°28'511.2
2018-Feb-12 23:00N 31°31' E 121°24'510.9
2018-Feb-12 22:30N 31°34' E 121°19'2 2.9
2018-Feb-12 21:58N 31°36' E 121°19'0 0.0
2018-Feb-12 21:31N 31°36' E 121°19'0 0.0
2018-Feb-12 21:01N 31°36' E 121°19'0 0.0
2018-Feb-12 20:25N 31°36' E 121°19'0 0.1
2018-Feb-12 19:58N 31°36' E 121°19'0 0.0
2018-Feb-12 19:31N 31°36' E 121°19'0 0.0
2018-Feb-12 19:01N 31°36' E 121°19'0 0.0
2018-Feb-12 18:28N 31°36' E 121°19'0 0.1
2018-Feb-12 18:01N 31°36' E 121°19'0 0.2
2018-Feb-12 17:25N 31°36' E 121°19'0 0.0
2018-Feb-12 17:01N 31°36' E 121°19'0 0.1
2018-Feb-12 16:25N 31°36' E 121°19'0 0.0
2018-Feb-12 16:01N 31°36' E 121°19'0 0.0
2018-Feb-12 15:13N 31°36' E 121°19'0 0.0
2018-Feb-12 15:01N 31°36' E 121°19'0 0.0
2018-Feb-12 14:25N 31°36' E 121°19'0 0.5
2018-Feb-12 14:01N 31°36' E 121°19'0 0.4
2018-Feb-12 13:30N 31°36' E 121°19'4 7.1
2018-Feb-12 13:00N 31°38' E 121°15'714.4
2018-Feb-12 12:31N 31°42' E 121°09'714.3
2018-Feb-12 12:00N 31°46' E 121°02'  
2018-Feb-08 21:30N 31°15' E 121°57'2610.4
2018-Feb-08 19:00N 31°07' E 122°25'  
Track history (hours):
 
Tides and Currents Weather Stations Pressure Air Temp Water Temp Dewpoint Dewpoint Depression Visibility Wind Speed Wind Dir Waves Ship Positions

Star Kilimanjaro

Last reported at 2018-Feb-14 23:51 UTC. Time now 2018-Feb-21 19:17 UTC.
Position N 22°18' E 119°49'.

Length 208 m; draft 7.2 m.

Type: Cargo ship. MMSI: 257350000.

Date/timePositionNaut miles runAvg speedWind from/ knotsBaromVisibWave heightAir tempDewpointWater temp
2018-Feb-14 23:51N 22°18' E 119°49'412.7
2018-Feb-14 23:30N 22°22' E 119°49'713.3
2018-Feb-14 23:00N 22°29' E 119°49'714.1
2018-Feb-14 22:30N 22°36' E 119°49'714.0
2018-Feb-14 22:00N 22°43' E 119°48'714.4
2018-Feb-14 21:30N 22°50' E 119°48'714.0
2018-Feb-14 21:00N 22°57' E 119°48'713.3
2018-Feb-14 20:29N 23°04' E 119°50'714.0
2018-Feb-14 20:00N 23°11' E 119°51'814.5
2018-Feb-14 19:29N 23°18' E 119°51'714.4
2018-Feb-14 19:00N 23°25' E 119°52'814.7
2018-Feb-14 18:30N 23°32' E 119°53'815.0
2018-Feb-14 17:58N 23°40' E 119°53'9414.0
2018-Feb-14 11:14N 25°06' E 120°35'314.5
2018-Feb-14 11:00N 25°09' E 120°37'714.4
2018-Feb-14 10:30N 25°15' E 120°41'714.2
2018-Feb-14 10:00N 25°21' E 120°46'714.4
2018-Feb-14 09:30N 25°28' E 120°50'714.2
2018-Feb-14 09:00N 25°33' E 120°54'713.7
2018-Feb-14 08:30N 25°39' E 120°58'713.7
2018-Feb-14 07:59N 25°45' E 121°03'713.7
2018-Feb-14 07:29N 25°51' E 121°07'713.8
2018-Feb-14 07:00N 25°57' E 121°11'31111.8
2018-Feb-13 04:34N 31°00' E 122°25'116.6
2018-Feb-13 04:29N 31°01' E 122°23'814.5
2018-Feb-13 03:55N 31°03' E 122°14'611.3
2018-Feb-13 03:23N 31°04' E 122°07'411.8
2018-Feb-13 03:00N 31°05' E 122°02'610.4
2018-Feb-13 02:24N 31°08' E 121°55'411.0
2018-Feb-13 02:01N 31°10' E 121°51'510.9
2018-Feb-13 01:30N 31°14' E 121°47'810.8
2018-Feb-13 00:47N 31°20' E 121°41'810.9
2018-Feb-13 00:02N 31°24' E 121°33'110.7
2018-Feb-12 23:59N 31°25' E 121°32'5 8.7
2018-Feb-12 23:26N 31°28' E 121°28'511.2
2018-Feb-12 23:00N 31°31' E 121°24'510.9
2018-Feb-12 22:30N 31°34' E 121°19'2 2.9
2018-Feb-12 21:58N 31°36' E 121°19'0 0.0
2018-Feb-12 21:31N 31°36' E 121°19'0 0.0
2018-Feb-12 21:01N 31°36' E 121°19'0 0.0
2018-Feb-12 20:25N 31°36' E 121°19'0 0.1
2018-Feb-12 19:58N 31°36' E 121°19'0 0.0
2018-Feb-12 19:31N 31°36' E 121°19'0 0.0
2018-Feb-12 19:01N 31°36' E 121°19'0 0.0
2018-Feb-12 18:28N 31°36' E 121°19'0 0.1
2018-Feb-12 18:01N 31°36' E 121°19'0 0.2
2018-Feb-12 17:25N 31°36' E 121°19'0 0.0
2018-Feb-12 17:01N 31°36' E 121°19'0 0.1
2018-Feb-12 16:25N 31°36' E 121°19'0 0.0
2018-Feb-12 16:01N 31°36' E 121°19'0 0.0
2018-Feb-12 15:13N 31°36' E 121°19'0 0.0
2018-Feb-12 15:01N 31°36' E 121°19'0 0.0
2018-Feb-12 14:25N 31°36' E 121°19'0 0.5
2018-Feb-12 14:01N 31°36' E 121°19'0 0.4
2018-Feb-12 13:30N 31°36' E 121°19'4 7.1
2018-Feb-12 13:00N 31°38' E 121°15'714.4
2018-Feb-12 12:31N 31°42' E 121°09'714.3
2018-Feb-12 12:00N 31°46' E 121°02'  
2018-Feb-08 21:30N 31°15' E 121°57'2610.4
2018-Feb-08 19:00N 31°07' E 122°25'  

Dump ship's entire track history